TimeCST,TemperatureF,Dew PointF,Humidity,Sea Level PressureIn,VisibilityMPH,Wind Direction,Wind SpeedMPH,Gust SpeedMPH,PrecipitationIn,Events,Conditions,WindDirDegrees,DateUTC
12:51 AM,73.0,69.1,87,29.75,9.0,SE,21.9,34.5,0.00,Rain,Light Rain,130,2012-01-25 06:51:00
1:12 AM,73.4,69.8,88,29.75,9.0,SE,24.2,31.1,0.00,,Overcast,140,2012-01-25 07:12:00
1:51 AM,73.0,69.1,87,29.74,9.0,SE,26.5,35.7,0.00,,Overcast,140,2012-01-25 07:51:00
2:51 AM,73.0,68.0,84,29.73,10.0,SSE,26.5,35.7,N/A,,Overcast,150,2012-01-25 08:51:00
3:01 AM,73.4,68.0,83,29.73,10.0,SSE,24.2,34.5,N/A,,Overcast,150,2012-01-25 09:01:00
3:51 AM,73.0,68.0,84,29.72,10.0,SSE,25.3,33.4,N/A,,Overcast,150,2012-01-25 09:51:00
4:16 AM,71.6,68.0,88,29.72,10.0,SSE,24.2,32.2,0.00,Rain,Light Rain,150,2012-01-25 10:16:00
4:51 AM,72.0,68.0,87,29.74,10.0,SSE,24.2,32.2,0.00,Rain,Light Rain,160,2012-01-25 10:51:00
4:55 AM,71.6,68.0,88,29.74,10.0,SSE,23.0,-,N/A,,Overcast,160,2012-01-25 10:55:00
5:23 AM,71.6,69.8,94,29.73,10.0,SSE,24.2,-,0.00,Rain,Light Rain,160,2012-01-25 11:23:00
5:51 AM,72.0,69.1,91,29.74,10.0,SSE,23.0,29.9,0.00,,Overcast,160,2012-01-25 11:51:00
6:51 AM,71.1,68.0,90,29.74,8.0,South,24.2,28.8,N/A,,Partly Cloudy,170,2012-01-25 12:51:00
7:51 AM,71.1,68.0,90,29.76,5.0,South,16.1,-,N/A,,Mostly Cloudy,180,2012-01-25 13:51:00
8:05 AM,69.8,66.2,88,29.78,3.0,WNW,21.9,-,0.01,Rain,Heavy Rain,300,2012-01-25 14:05:00
8:20 AM,64.4,62.6,94,29.79,2.0,WNW,15.0,-,0.18,Rain,Heavy Rain,290,2012-01-25 14:20:00
8:27 AM,64.4,60.8,88,29.81,1.0,West,9.2,19.6,0.27,Rain,Heavy Rain,280,2012-01-25 14:27:00
8:35 AM,64.4,62.6,94,29.81,4.0,West,9.2,-,0.32,Rain,Light Rain,280,2012-01-25 14:35:00
8:51 AM,64.9,61.0,87,29.81,7.0,West,15.0,-,0.34,Rain,Rain,280,2012-01-25 14:51:00
9:51 AM,66.0,61.0,84,29.83,10.0,WNW,13.8,-,0.00,,Mostly Cloudy,290,2012-01-25 15:51:00
10:51 AM,68.0,61.0,78,29.83,10.0,NW,17.3,-,N/A,,Scattered Clouds,310,2012-01-25 16:51:00
11:07 AM,69.8,62.6,78,29.84,10.0,NW,16.1,-,N/A,,Mostly Cloudy,310,2012-01-25 17:07:00
11:51 AM,69.1,62.1,78,29.82,10.0,NW,18.4,25.3,N/A,,Mostly Cloudy,310,2012-01-25 17:51:00
11:56 AM,69.8,62.6,78,29.82,10.0,NW,19.6,-,N/A,,Mostly Cloudy,310,2012-01-25 17:56:00
12:35 PM,71.6,60.8,69,29.82,10.0,NW,23.0,-,N/A,,Scattered Clouds,320,2012-01-25 18:35:00
12:51 PM,72.0,61.0,68,29.81,10.0,NW,20.7,26.5,N/A,,Scattered Clouds,320,2012-01-25 18:51:00
1:51 PM,73.0,60.1,64,29.80,10.0,NNW,21.9,-,N/A,,Scattered Clouds,330,2012-01-25 19:51:00
2:51 PM,72.0,57.9,61,29.78,10.0,NNW,21.9,29.9,N/A,,Scattered Clouds,330,2012-01-25 20:51:00
3:51 PM,72.0,55.9,57,29.78,10.0,NW,19.6,31.1,N/A,,Scattered Clouds,310,2012-01-25 21:51:00
4:51 PM,71.1,55.0,57,29.79,10.0,NNW,23.0,-,N/A,,Partly Cloudy,330,2012-01-25 22:51:00
5:51 PM,69.1,55.0,61,29.83,10.0,NNW,15.0,-,N/A,,Partly Cloudy,330,2012-01-25 23:51:00
6:51 PM,66.0,54.0,65,29.89,10.0,NNW,19.6,-,N/A,,Mostly Cloudy,340,2012-01-26 00:51:00
7:51 PM,63.0,53.1,70,29.93,10.0,NNW,19.6,27.6,N/A,,Scattered Clouds,340,2012-01-26 01:51:00
8:51 PM,61.0,52.0,72,29.96,10.0,NW,15.0,-,N/A,,Scattered Clouds,320,2012-01-26 02:51:00
9:51 PM,60.1,51.1,72,29.97,10.0,NNW,16.1,-,N/A,,Scattered Clouds,330,2012-01-26 03:51:00
10:51 PM,59.0,50.0,72,29.98,10.0,NNW,10.4,-,N/A,,Scattered Clouds,330,2012-01-26 04:51:00
11:51 PM,57.0,50.0,77,29.99,10.0,WNW,6.9,-,N/A,,Partly Cloudy,300,2012-01-26 05:51:00